createdAt,value
2023-03-08T00:01:26.676Z,3.61
2023-03-08T00:03:57.270Z,3.63
2023-03-08T00:06:25.604Z,3.67
2023-03-08T00:08:58.208Z,3.72
2023-03-08T00:11:28.381Z,3.78
2023-03-08T00:13:57.068Z,3.78
2023-03-08T00:16:25.617Z,3.77
2023-03-08T00:18:53.927Z,3.74
2023-03-08T00:21:22.073Z,3.72
2023-03-08T00:23:54.311Z,3.71
2023-03-08T00:26:22.773Z,3.66
2023-03-08T00:28:51.571Z,3.60
2023-03-08T00:31:22.315Z,3.50
2023-03-08T00:33:54.832Z,3.44
2023-03-08T00:36:25.982Z,3.44
2023-03-08T00:38:54.104Z,3.47
2023-03-08T00:41:22.346Z,3.52
2023-03-08T00:43:50.838Z,3.59
2023-03-08T00:46:18.942Z,3.64
2023-03-08T00:48:47.873Z,3.68
2023-03-08T00:51:17.820Z,3.71
2023-03-08T00:53:46.471Z,3.72
2023-03-08T00:56:14.606Z,3.74
2023-03-08T00:58:42.815Z,3.77
2023-03-08T01:01:16.916Z,3.82
2023-03-08T01:03:45.808Z,3.83
2023-03-08T01:06:14.934Z,3.85
2023-03-08T01:08:44.933Z,3.82
2023-03-08T01:11:24.582Z,3.81
2023-03-08T01:13:54.137Z,3.83
2023-03-08T01:16:28.033Z,3.85
2023-03-08T01:18:57.604Z,3.85
2023-03-08T01:21:26.142Z,3.80
2023-03-08T01:23:54.477Z,3.75
2023-03-08T01:26:24.371Z,3.74
2023-03-08T01:28:56.635Z,3.76
2023-03-08T01:31:26.252Z,3.75
2023-03-08T01:33:56.888Z,3.73
2023-03-08T01:36:26.001Z,3.74
2023-03-08T01:38:55.702Z,3.75
2023-03-08T01:41:25.890Z,3.78
2023-03-08T01:43:53.959Z,3.81
2023-03-08T01:46:36.202Z,3.81
2023-03-08T01:49:31.854Z,3.79
2023-03-08T01:52:04.867Z,3.84
2023-03-08T01:54:46.337Z,3.89
2023-03-08T01:57:20.762Z,3.88
2023-03-08T01:59:51.353Z,3.83
2023-03-08T02:02:23.084Z,3.80
2023-03-08T02:04:51.175Z,3.79
2023-03-08T02:07:21.463Z,3.80
2023-03-08T02:09:51.239Z,3.80
2023-03-08T02:12:19.278Z,3.74
2023-03-08T02:14:47.747Z,3.76
2023-03-08T02:17:15.947Z,3.77
2023-03-08T02:19:55.894Z,3.76
2023-03-08T02:22:24.548Z,3.76
2023-03-08T02:24:52.931Z,3.75
2023-03-08T02:27:23.577Z,3.66
2023-03-08T02:29:52.219Z,3.61
2023-03-08T02:32:21.861Z,3.55
2023-03-08T02:34:50.127Z,3.49
2023-03-08T02:37:18.177Z,3.45
2023-03-08T02:39:47.721Z,3.38
2023-03-08T02:42:16.264Z,3.34
2023-03-08T02:44:44.327Z,3.35
2023-03-08T02:47:12.884Z,3.38
2023-03-08T02:49:40.929Z,3.38
2023-03-08T02:52:10.003Z,3.38
2023-03-08T02:54:38.139Z,3.34
2023-03-08T02:57:07.652Z,3.31
2023-03-08T02:59:36.467Z,3.32
2023-03-08T03:02:08.300Z,3.31
2023-03-08T03:04:37.695Z,3.30
2023-03-08T03:07:05.800Z,3.30
2023-03-08T03:09:36.004Z,3.36
2023-03-08T03:12:04.516Z,3.41
2023-03-08T03:14:37.412Z,3.43
2023-03-08T03:17:05.508Z,3.44
2023-03-08T03:19:33.730Z,3.36
2023-03-08T03:22:07.802Z,3.29
2023-03-08T03:24:37.652Z,3.22
2023-03-08T03:27:07.312Z,3.18
2023-03-08T03:29:37.850Z,3.17
2023-03-08T03:32:14.996Z,3.20
2023-03-08T03:34:44.439Z,3.22
2023-03-08T03:37:13.086Z,3.22
2023-03-08T03:39:41.819Z,3.22
2023-03-08T03:42:11.964Z,3.21
2023-03-08T03:44:43.750Z,3.23
2023-03-08T03:47:15.199Z,3.25
2023-03-08T03:49:43.617Z,3.26
2023-03-08T03:52:13.142Z,3.27
2023-03-08T03:54:45.980Z,3.28
2023-03-08T03:57:14.226Z,3.31
2023-03-08T03:59:43.019Z,3.35
2023-03-08T04:02:14.625Z,3.38
2023-03-08T04:04:49.738Z,3.38
2023-03-08T04:07:19.062Z,3.40
2023-03-08T04:09:54.654Z,3.44
2023-03-08T04:12:22.715Z,3.51
2023-03-08T04:14:51.310Z,3.56
2023-03-08T04:17:20.703Z,3.56
2023-03-08T04:19:52.779Z,3.55
2023-03-08T04:22:26.174Z,3.56
2023-03-08T04:24:58.937Z,3.57
2023-03-08T04:27:32.847Z,3.57
2023-03-08T04:30:02.293Z,3.58
2023-03-08T04:32:34.504Z,3.62
2023-03-08T04:35:03.121Z,3.62
2023-03-08T04:37:31.939Z,3.58
2023-03-08T04:40:09.405Z,3.52
2023-03-08T04:42:43.378Z,3.46
2023-03-08T04:45:11.991Z,3.44
2023-03-08T04:47:40.853Z,3.42
2023-03-08T04:50:09.931Z,3.40
2023-03-08T04:52:38.078Z,3.38
2023-03-08T04:55:06.699Z,3.41
2023-03-08T04:57:35.537Z,3.47
2023-03-08T05:00:05.930Z,3.56
2023-03-08T05:02:37.330Z,3.60
2023-03-08T05:05:07.062Z,3.59
2023-03-08T05:07:38.750Z,3.58
2023-03-08T05:10:07.409Z,3.56
2023-03-08T05:12:35.878Z,3.56
2023-03-08T05:15:05.200Z,3.59
2023-03-08T05:17:33.595Z,3.59
2023-03-08T05:20:02.124Z,3.59
2023-03-08T05:22:48.097Z,3.57
2023-03-08T05:25:23.573Z,3.54
2023-03-08T05:27:52.362Z,3.51
2023-03-08T05:30:21.580Z,3.48
2023-03-08T05:32:50.391Z,3.47
2023-03-08T05:35:18.533Z,3.51
2023-03-08T05:37:47.531Z,3.55
2023-03-08T05:40:16.570Z,3.55
2023-03-08T05:42:45.101Z,3.55
2023-03-08T05:45:14.770Z,3.52
2023-03-08T05:47:43.077Z,3.48
2023-03-08T05:50:12.345Z,3.46
2023-03-08T05:52:43.042Z,3.49
2023-03-08T05:55:14.241Z,3.58
2023-03-08T05:57:42.662Z,3.65
2023-03-08T06:00:11.879Z,3.71
2023-03-08T06:02:52.122Z,3.76
2023-03-08T06:05:20.917Z,3.78
2023-03-08T06:07:49.239Z,3.78
2023-03-08T06:10:17.696Z,3.75
2023-03-08T06:12:49.087Z,3.74
2023-03-08T06:15:17.837Z,3.73
2023-03-08T06:17:48.962Z,3.69
2023-03-08T06:20:19.612Z,3.66
2023-03-08T06:22:49.968Z,3.70
2023-03-08T06:25:19.906Z,3.75
2023-03-08T06:27:49.364Z,3.74
2023-03-08T06:30:35.410Z,3.72
2023-03-08T06:33:05.652Z,3.72
2023-03-08T06:35:34.002Z,3.74
2023-03-08T06:38:03.127Z,3.83
2023-03-08T06:40:32.831Z,3.97
2023-03-08T06:43:01.645Z,4.06
2023-03-08T06:45:29.786Z,4.05
2023-03-08T06:47:58.269Z,3.99
2023-03-08T06:50:26.812Z,3.97
2023-03-08T06:52:55.132Z,3.96
2023-03-08T06:55:35.871Z,3.95
2023-03-08T06:58:04.298Z,3.98
2023-03-08T07:00:35.119Z,4.06
2023-03-08T07:03:03.310Z,4.19
2023-03-08T07:05:31.677Z,4.34
2023-03-08T07:08:01.573Z,4.43
2023-03-08T07:10:30.252Z,4.43
2023-03-08T07:13:00.700Z,4.43
2023-03-08T07:15:28.811Z,4.45
2023-03-08T07:17:58.708Z,4.48
2023-03-08T07:20:27.698Z,4.49
2023-03-08T07:22:55.984Z,4.56
2023-03-08T07:25:24.127Z,4.67
2023-03-08T07:28:00.228Z,4.79
2023-03-08T07:30:28.674Z,4.91
2023-03-08T07:32:56.948Z,4.99
2023-03-08T07:35:27.776Z,5.00
2023-03-08T07:37:56.255Z,5.05
2023-03-08T07:40:24.400Z,5.12
2023-03-08T07:42:52.332Z,5.13
2023-03-08T07:45:29.910Z,5.11
2023-03-08T07:47:58.706Z,5.15
2023-03-08T07:50:26.865Z,5.23
2023-03-08T07:52:56.364Z,5.34
2023-03-08T07:55:25.676Z,5.43
2023-03-08T07:57:56.887Z,5.54
2023-03-08T08:00:25.710Z,5.64
2023-03-08T08:02:54.199Z,5.72
2023-03-08T08:05:23.272Z,5.73
2023-03-08T08:07:51.256Z,5.69
2023-03-08T08:10:21.457Z,5.68
2023-03-08T08:12:50.638Z,5.68
2023-03-08T08:15:19.261Z,5.76
2023-03-08T08:17:52.575Z,5.87
2023-03-08T08:20:21.220Z,5.90
2023-03-08T08:22:52.102Z,5.94
2023-03-08T08:25:21.156Z,6.03
2023-03-08T08:27:50.749Z,6.15
2023-03-08T08:30:19.446Z,6.24
2023-03-08T08:32:47.638Z,6.30
2023-03-08T08:35:16.406Z,6.39
2023-03-08T08:37:44.879Z,6.47
2023-03-08T08:40:13.246Z,6.51
2023-03-08T08:42:41.454Z,6.50
2023-03-08T08:45:10.188Z,6.44
2023-03-08T08:47:38.348Z,6.39
2023-03-08T08:50:07.089Z,6.41
2023-03-08T08:52:35.328Z,6.46
2023-03-08T08:55:06.633Z,6.47
2023-03-08T08:57:35.372Z,6.44
2023-03-08T09:00:08.277Z,6.47
2023-03-08T09:02:36.826Z,6.51
2023-03-08T09:05:06.141Z,6.57
2023-03-08T09:07:34.338Z,6.63
2023-03-08T09:10:02.680Z,6.65
2023-03-08T09:12:31.201Z,6.66
2023-03-08T09:14:59.887Z,6.71
2023-03-08T09:17:28.151Z,6.80
2023-03-08T09:19:56.625Z,6.89
2023-03-08T09:22:25.533Z,6.98
2023-03-08T09:24:53.508Z,7.08
2023-03-08T09:27:21.617Z,7.18
2023-03-08T09:29:50.676Z,7.27
2023-03-08T09:32:18.873Z,7.32
2023-03-08T09:34:47.519Z,7.36
2023-03-08T09:37:15.718Z,7.45
2023-03-08T09:39:44.983Z,7.55
2023-03-08T09:42:25.172Z,7.65
2023-03-08T09:45:14.447Z,7.76
2023-03-08T09:48:11.147Z,7.87
2023-03-08T09:50:59.349Z,7.96
2023-03-08T09:53:38.511Z,8.04
2023-03-08T09:56:12.353Z,8.12
2023-03-08T09:58:55.933Z,8.18
2023-03-08T10:01:38.543Z,8.23
2023-03-08T10:04:29.097Z,8.30
2023-03-08T10:07:17.573Z,8.39
2023-03-08T10:09:53.074Z,8.47
2023-03-08T10:12:49.982Z,8.54
2023-03-08T10:15:25.066Z,8.61
2023-03-08T10:18:21.233Z,8.66
2023-03-08T10:20:49.723Z,8.72
2023-03-08T10:23:21.689Z,8.76
2023-03-08T10:25:50.441Z,8.79
2023-03-08T10:28:20.854Z,8.83
2023-03-08T10:31:28.156Z,8.87
2023-03-08T10:34:03.999Z,8.91
2023-03-08T10:36:34.888Z,8.97
2023-03-08T10:39:09.759Z,9.01
2023-03-08T10:41:43.552Z,9.06
2023-03-08T10:44:14.378Z,9.09
2023-03-08T10:46:47.666Z,9.14
2023-03-08T10:49:17.557Z,9.19
2023-03-08T10:52:01.223Z,9.22
2023-03-08T10:54:30.061Z,9.27
2023-03-08T10:56:59.607Z,9.32
2023-03-08T10:59:32.656Z,9.37
2023-03-08T11:02:13.419Z,9.42
2023-03-08T11:04:53.615Z,9.50
2023-03-08T11:07:29.431Z,9.55
2023-03-08T11:10:13.045Z,9.59
2023-03-08T11:12:41.709Z,9.63
2023-03-08T11:15:16.562Z,9.68
2023-03-08T11:17:56.436Z,9.72
2023-03-08T11:21:07.878Z,9.75
2023-03-08T11:24:08.800Z,9.79
2023-03-08T11:27:14.769Z,9.85
2023-03-08T11:29:52.530Z,9.91
2023-03-08T11:32:45.078Z,9.94
2023-03-08T11:35:28.122Z,9.97
2023-03-08T11:38:00.153Z,9.99
2023-03-08T11:40:40.349Z,10.03
2023-03-08T11:43:30.579Z,10.06
2023-03-08T11:46:23.239Z,10.07
2023-03-08T11:49:01.255Z,10.08
2023-03-08T11:51:51.593Z,10.08
2023-03-08T11:54:38.550Z,10.08
2023-03-08T11:57:12.581Z,10.07
2023-03-08T11:59:50.640Z,10.07
2023-03-08T12:02:20.988Z,10.07
2023-03-08T12:05:12.440Z,10.08
2023-03-08T12:07:48.597Z,10.09
2023-03-08T12:10:51.085Z,10.11
2023-03-08T12:13:29.742Z,10.14
2023-03-08T12:16:04.736Z,10.17
2023-03-08T12:18:34.511Z,10.20
2023-03-08T12:21:35.756Z,10.22
2023-03-08T12:24:32.453Z,10.26
2023-03-08T12:27:06.609Z,10.28
2023-03-08T12:30:15.594Z,10.29
2023-03-08T12:32:43.869Z,10.31
2023-03-08T12:35:22.327Z,10.32
2023-03-08T12:37:59.561Z,10.34
2023-03-08T12:40:44.363Z,10.36
2023-03-08T12:43:34.299Z,10.39
2023-03-08T12:46:06.668Z,10.41
2023-03-08T12:48:40.562Z,10.44
2023-03-08T12:51:14.674Z,10.48
2023-03-08T12:53:44.162Z,10.50
2023-03-08T12:56:12.488Z,10.53
2023-03-08T12:58:56.572Z,10.55
2023-03-08T13:01:24.823Z,10.57
2023-03-08T13:03:54.208Z,10.58
2023-03-08T13:06:22.876Z,10.60
2023-03-08T13:08:54.378Z,10.62
2023-03-08T13:11:26.522Z,10.63
2023-03-08T13:13:58.653Z,10.63
2023-03-08T13:16:30.112Z,10.64
2023-03-08T13:19:21.651Z,10.65
2023-03-08T13:22:16.335Z,10.66
2023-03-08T13:24:49.844Z,10.66
2023-03-08T13:27:47.797Z,10.67
2023-03-08T13:30:36.992Z,10.69
2023-03-08T13:33:13.438Z,10.70
2023-03-08T13:35:41.442Z,10.72
2023-03-08T13:38:20.326Z,10.73
2023-03-08T13:40:52.793Z,10.74
2023-03-08T13:43:25.056Z,10.74
2023-03-08T13:45:54.947Z,10.76
2023-03-08T13:48:23.128Z,10.77
2023-03-08T13:50:51.842Z,10.78
2023-03-08T13:53:22.463Z,10.79
2023-03-08T13:55:57.196Z,10.80
2023-03-08T13:58:35.696Z,10.82
2023-03-08T14:01:18.979Z,10.85
2023-03-08T14:03:47.560Z,10.86
2023-03-08T14:06:33.761Z,10.89
2023-03-08T14:09:03.930Z,10.92
2023-03-08T14:11:34.139Z,10.95
2023-03-08T14:14:07.528Z,10.96
2023-03-08T14:16:37.751Z,10.97
2023-03-08T14:19:15.031Z,10.98
2023-03-08T14:21:55.408Z,10.99
2023-03-08T14:24:34.625Z,10.99
2023-03-08T14:27:30.644Z,11.00
2023-03-08T14:30:04.088Z,11.02
2023-03-08T14:32:32.618Z,11.04
2023-03-08T14:35:25.248Z,11.04
2023-03-08T14:37:56.979Z,11.05
2023-03-08T14:40:31.088Z,11.04
2023-03-08T14:43:02.417Z,11.05
2023-03-08T14:45:40.484Z,11.04
2023-03-08T14:48:25.139Z,11.04
2023-03-08T14:50:55.823Z,11.05
2023-03-08T14:53:31.173Z,11.04
2023-03-08T14:56:00.474Z,11.04
2023-03-08T14:58:31.142Z,11.03
2023-03-08T15:01:01.386Z,11.03
2023-03-08T15:03:30.353Z,11.01
2023-03-08T15:05:59.248Z,11.00
2023-03-08T15:08:28.862Z,10.99
2023-03-08T15:10:57.185Z,10.96
2023-03-08T15:13:27.244Z,10.95
2023-03-08T15:15:55.870Z,10.93
2023-03-08T15:18:24.982Z,10.91
2023-03-08T15:20:53.157Z,10.90
2023-03-08T15:23:26.223Z,10.89
2023-03-08T15:25:54.639Z,10.87
2023-03-08T15:28:23.718Z,10.85
2023-03-08T15:30:52.899Z,10.84
2023-03-08T15:33:21.686Z,10.82
2023-03-08T15:35:50.573Z,10.81
2023-03-08T15:38:19.008Z,10.79
2023-03-08T15:40:52.282Z,10.78
2023-03-08T15:43:20.878Z,10.77
2023-03-08T15:45:48.865Z,10.76
2023-03-08T15:48:18.243Z,10.75
2023-03-08T15:50:46.678Z,10.73
2023-03-08T15:53:29.665Z,10.68
2023-03-08T15:56:03.160Z,10.60
2023-03-08T15:58:31.767Z,10.53
2023-03-08T16:01:00.589Z,10.43
2023-03-08T16:03:31.200Z,10.35
2023-03-08T16:05:59.732Z,10.30
2023-03-08T16:08:29.445Z,10.26
2023-03-08T16:11:03.791Z,10.19
2023-03-08T16:13:34.548Z,10.13
2023-03-08T16:16:03.568Z,10.10
2023-03-08T16:18:32.241Z,10.09
2023-03-08T16:21:00.732Z,10.08
2023-03-08T16:23:29.110Z,10.06
2023-03-08T16:26:14.777Z,10.05
2023-03-08T16:28:46.569Z,10.02
2023-03-08T16:31:15.105Z,9.95
2023-03-08T16:33:43.634Z,9.81
2023-03-08T16:36:12.449Z,9.70
2023-03-08T16:38:43.404Z,9.65
2023-03-08T16:41:13.493Z,9.66
2023-03-08T16:43:48.300Z,9.69
2023-03-08T16:46:19.156Z,9.72
2023-03-08T16:48:49.761Z,9.74
2023-03-08T16:51:20.386Z,9.76
2023-03-08T16:53:49.077Z,9.76
2023-03-08T16:56:26.870Z,9.75
2023-03-08T16:58:56.985Z,9.74
2023-03-08T17:01:26.749Z,9.72
2023-03-08T17:03:56.101Z,9.69
2023-03-08T17:06:27.036Z,9.69
2023-03-08T17:08:57.488Z,9.69
2023-03-08T17:11:27.486Z,9.69
2023-03-08T17:13:58.652Z,9.69
2023-03-08T17:16:28.356Z,9.69
2023-03-08T17:18:56.635Z,9.64
2023-03-08T17:21:24.784Z,9.58
2023-03-08T17:23:53.608Z,9.52
2023-03-08T17:26:22.535Z,9.46
2023-03-08T17:28:52.177Z,9.42
2023-03-08T17:31:21.614Z,9.40
2023-03-08T17:33:50.759Z,9.39
2023-03-08T17:36:22.506Z,9.42
2023-03-08T17:38:55.538Z,9.45
2023-03-08T17:41:25.901Z,9.51
2023-03-08T17:43:54.155Z,9.52
2023-03-08T17:46:23.699Z,9.52
2023-03-08T17:48:53.303Z,9.53
2023-03-08T17:51:24.378Z,9.55
2023-03-08T17:53:52.736Z,9.56
2023-03-08T17:56:22.756Z,9.57
2023-03-08T17:58:54.588Z,9.61
2023-03-08T18:01:24.399Z,9.67
2023-03-08T18:03:53.059Z,9.74
2023-03-08T18:06:38.011Z,9.79
2023-03-08T18:09:10.674Z,9.84
2023-03-08T18:11:38.824Z,9.87
2023-03-08T18:14:16.837Z,9.88
2023-03-08T18:16:45.038Z,9.88
2023-03-08T18:19:15.658Z,9.86
2023-03-08T18:21:43.827Z,9.76
2023-03-08T18:24:12.142Z,9.63
2023-03-08T18:26:41.400Z,9.47
2023-03-08T18:29:09.516Z,9.39
2023-03-08T18:31:40.329Z,9.29
2023-03-08T18:34:09.291Z,9.14
2023-03-08T18:36:37.591Z,8.98
2023-03-08T18:39:07.060Z,8.88
2023-03-08T18:41:36.149Z,8.80
2023-03-08T18:44:10.671Z,8.75
2023-03-08T18:46:39.524Z,8.74
2023-03-08T18:49:11.143Z,8.70
2023-03-08T18:51:40.268Z,8.67
2023-03-08T18:54:20.494Z,8.68
2023-03-08T18:56:53.903Z,8.71
2023-03-08T18:59:22.151Z,8.74
2023-03-08T19:01:52.257Z,8.77
2023-03-08T19:04:20.436Z,8.80
2023-03-08T19:06:48.403Z,8.83
2023-03-08T19:09:17.255Z,8.84
2023-03-08T19:11:45.986Z,8.86
2023-03-08T19:14:14.292Z,8.87
2023-03-08T19:16:44.732Z,8.88
2023-03-08T19:19:14.662Z,8.87
2023-03-08T19:21:46.827Z,8.88
2023-03-08T19:24:16.845Z,8.88
2023-03-08T19:26:47.551Z,8.88
2023-03-08T19:29:29.712Z,8.87
2023-03-08T19:31:59.769Z,8.85
2023-03-08T19:34:34.333Z,8.81
2023-03-08T19:37:05.207Z,8.77
2023-03-08T19:39:35.058Z,8.74
2023-03-08T19:42:05.909Z,8.74
2023-03-08T19:44:34.347Z,8.71
2023-03-08T19:47:04.710Z,8.67
2023-03-08T19:49:35.937Z,8.63
2023-03-08T19:52:05.150Z,8.59
2023-03-08T19:54:34.123Z,8.56
2023-03-08T19:57:03.814Z,8.55
2023-03-08T19:59:38.663Z,8.54
2023-03-08T20:02:08.833Z,8.51
2023-03-08T20:04:37.122Z,8.50
2023-03-08T20:07:07.250Z,8.47
2023-03-08T20:09:36.173Z,8.44
2023-03-08T20:12:05.967Z,8.39
2023-03-08T20:14:35.045Z,8.37
2023-03-08T20:17:05.096Z,8.34
2023-03-08T20:19:36.920Z,8.29
2023-03-08T20:22:05.125Z,8.24
2023-03-08T20:24:35.497Z,8.21
2023-03-08T20:27:05.362Z,8.21
2023-03-08T20:29:34.560Z,8.22
2023-03-08T20:32:03.319Z,8.21
2023-03-08T20:34:32.629Z,8.18
2023-03-08T20:37:00.563Z,8.18
2023-03-08T20:39:29.092Z,8.20
2023-03-08T20:41:58.706Z,8.21
2023-03-08T20:44:27.773Z,8.23
2023-03-08T20:46:55.813Z,8.23
2023-03-08T20:49:25.452Z,8.22
2023-03-08T20:51:54.582Z,8.23
2023-03-08T20:54:23.285Z,8.24
2023-03-08T20:56:51.297Z,8.20
2023-03-08T20:59:24.200Z,8.14
2023-03-08T21:01:55.934Z,8.07
2023-03-08T21:04:24.310Z,8.00
2023-03-08T21:06:55.068Z,7.95
2023-03-08T21:09:23.131Z,7.96
2023-03-08T21:11:52.169Z,7.98
2023-03-08T21:14:21.578Z,8.00
2023-03-08T21:16:51.785Z,8.01
2023-03-08T21:19:20.468Z,7.98
2023-03-08T21:21:48.754Z,7.99
2023-03-08T21:24:18.949Z,8.01
2023-03-08T21:26:46.914Z,8.01
2023-03-08T21:29:18.058Z,8.03
2023-03-08T21:31:50.550Z,8.02
2023-03-08T21:34:20.051Z,7.99
2023-03-08T21:36:48.174Z,7.95
2023-03-08T21:39:16.335Z,7.94
2023-03-08T21:41:46.793Z,7.94
2023-03-08T21:44:17.560Z,7.95
2023-03-08T21:46:46.684Z,7.99
2023-03-08T21:49:17.795Z,8.03
2023-03-08T21:51:45.820Z,8.06
2023-03-08T21:54:15.418Z,8.09
2023-03-08T21:56:43.518Z,8.10
2023-03-08T21:59:13.034Z,8.11
2023-03-08T22:01:41.845Z,8.11
2023-03-08T22:04:09.968Z,8.11
2023-03-08T22:06:37.977Z,8.11
2023-03-08T22:09:10.101Z,8.13
2023-03-08T22:11:38.082Z,8.13
2023-03-08T22:14:06.349Z,8.13
2023-03-08T22:16:37.977Z,8.12
2023-03-08T22:19:06.114Z,8.11
2023-03-08T22:21:34.399Z,8.10
2023-03-08T22:24:02.921Z,8.06
2023-03-08T22:26:31.624Z,8.03
2023-03-08T22:28:59.854Z,8.01
2023-03-08T22:31:29.337Z,8.00
2023-03-08T22:33:58.711Z,7.98
2023-03-08T22:36:30.013Z,7.97
2023-03-08T22:38:58.195Z,7.96
2023-03-08T22:41:26.985Z,7.92
2023-03-08T22:43:55.053Z,7.89
2023-03-08T22:46:26.003Z,7.86
2023-03-08T22:48:58.515Z,7.78
2023-03-08T22:51:28.380Z,7.67
2023-03-08T22:53:56.777Z,7.53
2023-03-08T22:56:29.591Z,7.44
2023-03-08T22:58:57.879Z,7.42
2023-03-08T23:01:26.580Z,7.44
2023-03-08T23:03:56.843Z,7.48
2023-03-08T23:06:28.148Z,7.48
2023-03-08T23:08:57.206Z,7.45
2023-03-08T23:11:29.911Z,7.47
2023-03-08T23:13:58.111Z,7.52
2023-03-08T23:16:26.280Z,7.56
2023-03-08T23:18:54.566Z,7.56
2023-03-08T23:21:23.759Z,7.51
2023-03-08T23:23:52.382Z,7.47
2023-03-08T23:26:21.376Z,7.47
2023-03-08T23:28:49.587Z,7.51
2023-03-08T23:31:20.366Z,7.54
2023-03-08T23:33:49.102Z,7.58
2023-03-08T23:36:18.485Z,7.60
2023-03-08T23:38:46.504Z,7.60
2023-03-08T23:41:14.862Z,7.57
2023-03-08T23:43:43.030Z,7.54
2023-03-08T23:46:20.129Z,7.53
2023-03-08T23:48:48.343Z,7.53
2023-03-08T23:51:18.264Z,7.53
2023-03-08T23:53:53.824Z,7.52
2023-03-08T23:56:31.046Z,7.51
2023-03-08T23:59:01.370Z,7.47
